createdAt,value
2023-03-15T00:01:17.014Z,1.60
2023-03-15T00:03:44.553Z,1.90
2023-03-15T00:06:12.244Z,1.67
2023-03-15T00:08:39.806Z,2.30
2023-03-15T00:11:07.645Z,1.38
2023-03-15T00:13:34.611Z,1.40
2023-03-15T00:16:05.994Z,1.30
2023-03-15T00:18:33.193Z,1.50
2023-03-15T00:21:00.290Z,1.50
2023-03-15T00:23:27.332Z,1.63
2023-03-15T00:25:54.377Z,1.35
2023-03-15T00:28:21.872Z,2.38
2023-03-15T00:30:48.933Z,1.40
2023-03-15T00:33:16.824Z,1.30
2023-03-15T00:35:45.613Z,2.20
2023-03-15T00:38:13.971Z,1.60
2023-03-15T00:40:41.054Z,1.33
2023-03-15T00:43:07.992Z,1.30
2023-03-15T00:45:34.972Z,1.60
2023-03-15T00:48:01.983Z,2.05
2023-03-15T00:50:29.318Z,1.20
2023-03-15T00:52:56.259Z,1.67
2023-03-15T00:55:23.342Z,1.60
2023-03-15T00:57:50.269Z,1.35
2023-03-15T01:00:24.228Z,1.88
2023-03-15T01:02:52.969Z,1.35
2023-03-15T01:05:20.021Z,1.60
2023-03-15T01:07:47.456Z,1.20
2023-03-15T01:10:15.879Z,1.15
2023-03-15T01:12:42.799Z,1.17
2023-03-15T01:15:12.307Z,2.88
2023-03-15T01:17:39.662Z,1.52
2023-03-15T01:20:08.000Z,1.40
2023-03-15T01:22:35.014Z,1.65
2023-03-15T01:25:02.128Z,1.65
2023-03-15T01:27:29.237Z,1.50
2023-03-15T01:29:56.190Z,1.20
2023-03-15T01:32:23.265Z,1.58
2023-03-15T01:34:50.554Z,2.22
2023-03-15T01:37:17.503Z,1.85
2023-03-15T01:39:44.627Z,1.33
2023-03-15T01:42:11.859Z,1.58
2023-03-15T01:44:52.707Z,1.75
2023-03-15T01:47:19.776Z,2.35
2023-03-15T01:49:51.929Z,1.40
2023-03-15T01:52:24.537Z,1.70
2023-03-15T01:54:51.384Z,2.15
2023-03-15T01:57:44.754Z,1.20
2023-03-15T02:00:14.977Z,2.10
2023-03-15T02:02:50.909Z,1.95
2023-03-15T02:05:24.290Z,1.67
2023-03-15T02:07:54.699Z,2.28
2023-03-15T02:10:42.356Z,1.88
2023-03-15T02:13:10.034Z,1.92
2023-03-15T02:15:36.970Z,1.63
2023-03-15T02:18:04.143Z,1.60
2023-03-15T02:21:01.742Z,1.67
2023-03-15T02:23:29.765Z,1.42
2023-03-15T02:25:59.578Z,1.80
2023-03-15T02:28:27.616Z,1.70
2023-03-15T02:30:55.010Z,2.10
2023-03-15T02:33:26.537Z,1.67
2023-03-15T02:35:54.212Z,2.78
2023-03-15T02:38:22.710Z,1.80
2023-03-15T02:40:53.167Z,1.35
2023-03-15T02:43:25.230Z,1.60
2023-03-15T02:45:52.532Z,2.08
2023-03-15T02:48:20.248Z,1.80
2023-03-15T02:50:47.171Z,1.80
2023-03-15T02:53:14.114Z,1.38
2023-03-15T02:55:41.274Z,1.80
2023-03-15T02:58:08.236Z,2.20
2023-03-15T03:00:35.160Z,1.98
2023-03-15T03:03:02.104Z,1.23
2023-03-15T03:05:29.065Z,1.70
2023-03-15T03:07:56.064Z,1.42
2023-03-15T03:10:23.087Z,1.30
2023-03-15T03:12:53.673Z,1.80
2023-03-15T03:15:21.112Z,1.58
2023-03-15T03:17:48.118Z,1.98
2023-03-15T03:20:15.693Z,1.35
2023-03-15T03:22:44.966Z,1.65
2023-03-15T03:25:12.820Z,1.90
2023-03-15T03:27:40.762Z,1.60
2023-03-15T03:30:11.509Z,1.73
2023-03-15T03:32:39.745Z,1.77
2023-03-15T03:35:07.747Z,3.83
2023-03-15T03:37:35.861Z,2.45
2023-03-15T03:40:07.865Z,2.30
2023-03-15T03:42:36.003Z,1.67
2023-03-15T03:45:02.930Z,1.75
2023-03-15T03:47:29.908Z,1.65
2023-03-15T03:49:56.801Z,1.50
2023-03-15T03:52:23.772Z,1.35
2023-03-15T03:54:50.965Z,1.38
2023-03-15T03:57:17.980Z,1.35
2023-03-15T03:59:44.960Z,1.67
2023-03-15T04:02:11.945Z,1.60
2023-03-15T04:04:41.422Z,3.80
2023-03-15T04:07:08.729Z,1.35
2023-03-15T04:09:38.711Z,1.35
2023-03-15T04:12:06.502Z,1.25
2023-03-15T04:14:33.685Z,1.30
2023-03-15T04:17:03.855Z,1.50
2023-03-15T04:19:31.306Z,1.60
2023-03-15T04:21:58.249Z,1.52
2023-03-15T04:24:25.185Z,1.25
2023-03-15T04:26:57.919Z,1.50
2023-03-15T04:29:24.971Z,1.30
2023-03-15T04:31:51.908Z,1.58
2023-03-15T04:34:18.898Z,1.38
2023-03-15T04:36:45.819Z,1.70
2023-03-15T04:39:12.739Z,1.50
2023-03-15T04:41:39.718Z,1.58
2023-03-15T04:44:06.860Z,1.30
2023-03-15T04:46:34.179Z,1.80
2023-03-15T04:49:01.864Z,0.90
2023-03-15T04:51:28.864Z,1.23
2023-03-15T04:53:55.763Z,1.52
2023-03-15T04:56:22.696Z,1.52
2023-03-15T04:58:49.615Z,1.38
2023-03-15T05:01:16.987Z,1.40
2023-03-15T05:03:43.939Z,1.65
2023-03-15T05:06:10.917Z,1.27
2023-03-15T05:08:37.943Z,1.35
2023-03-15T05:11:05.359Z,1.70
2023-03-15T05:13:32.613Z,1.25
2023-03-15T05:15:59.570Z,1.63
2023-03-15T05:18:26.549Z,1.83
2023-03-15T05:20:55.888Z,1.58
2023-03-15T05:23:26.316Z,1.40
2023-03-15T05:25:54.894Z,1.35
2023-03-15T05:28:26.276Z,1.20
2023-03-15T05:30:53.577Z,1.15
2023-03-15T05:33:21.025Z,1.30
2023-03-15T05:35:48.958Z,1.35
2023-03-15T05:38:16.149Z,1.60
2023-03-15T05:40:46.844Z,1.00
2023-03-15T05:43:13.807Z,1.17
2023-03-15T05:45:41.012Z,1.33
2023-03-15T05:48:08.022Z,1.23
2023-03-15T05:50:34.976Z,1.42
2023-03-15T05:53:01.938Z,1.08
2023-03-15T05:55:28.908Z,1.00
2023-03-15T05:57:55.782Z,1.00
2023-03-15T06:00:23.144Z,1.38
2023-03-15T06:02:50.134Z,1.30
2023-03-15T06:05:17.181Z,1.90
2023-03-15T06:07:44.751Z,1.55
2023-03-15T06:10:11.955Z,1.65
2023-03-15T06:12:38.870Z,1.20
2023-03-15T06:15:06.806Z,1.77
2023-03-15T06:17:33.718Z,1.45
2023-03-15T06:20:00.758Z,1.80
2023-03-15T06:22:28.003Z,1.50
2023-03-15T06:24:54.930Z,2.88
2023-03-15T06:27:22.338Z,1.52
2023-03-15T06:29:50.692Z,2.50
2023-03-15T06:32:17.676Z,1.58
2023-03-15T06:34:44.556Z,1.40
2023-03-15T06:37:16.349Z,1.50
2023-03-15T06:39:47.536Z,1.70
2023-03-15T06:42:14.688Z,1.65
2023-03-15T06:44:42.000Z,1.60
2023-03-15T06:47:10.784Z,1.55
2023-03-15T06:49:38.007Z,1.45
2023-03-15T06:52:06.440Z,1.20
2023-03-15T06:54:33.347Z,1.85
2023-03-15T06:57:00.369Z,1.40
2023-03-15T06:59:27.325Z,1.55
2023-03-15T07:01:54.237Z,1.15
2023-03-15T07:04:21.751Z,1.30
2023-03-15T07:06:48.692Z,1.15
2023-03-15T07:09:15.842Z,1.45
2023-03-15T07:11:42.843Z,1.10
2023-03-15T07:14:09.835Z,1.38
2023-03-15T07:16:36.791Z,1.33
2023-03-15T07:19:03.925Z,1.83
2023-03-15T07:21:31.078Z,1.67
2023-03-15T07:23:57.984Z,1.65
2023-03-15T07:26:24.926Z,1.60
2023-03-15T07:28:51.806Z,1.55
2023-03-15T07:31:18.773Z,1.38
2023-03-15T07:33:45.904Z,1.40
2023-03-15T07:36:12.910Z,1.30
2023-03-15T07:38:42.022Z,1.15
2023-03-15T07:41:10.416Z,1.25
2023-03-15T07:43:37.328Z,1.20
2023-03-15T07:46:04.361Z,1.80
2023-03-15T07:48:31.414Z,1.08
2023-03-15T07:50:58.345Z,1.30
2023-03-15T07:53:25.607Z,1.10
2023-03-15T07:55:52.634Z,1.65
2023-03-15T07:58:20.468Z,1.00
2023-03-15T08:00:48.141Z,0.90
2023-03-15T08:03:15.119Z,1.00
2023-03-15T08:05:42.120Z,1.38
2023-03-15T08:08:09.022Z,1.30
2023-03-15T08:10:36.046Z,1.17
2023-03-15T08:13:03.026Z,0.90
2023-03-15T08:15:30.186Z,1.15
2023-03-15T08:17:57.141Z,1.23
2023-03-15T08:20:24.079Z,1.05
2023-03-15T08:22:51.589Z,1.17
2023-03-15T08:25:21.865Z,1.02
2023-03-15T08:27:51.044Z,1.13
2023-03-15T08:30:19.568Z,1.23
2023-03-15T08:32:47.845Z,1.55
2023-03-15T08:35:17.125Z,2.03
2023-03-15T08:37:47.858Z,1.42
2023-03-15T08:40:16.539Z,1.30
2023-03-15T08:42:43.519Z,0.90
2023-03-15T08:45:11.379Z,1.33
2023-03-15T08:47:38.521Z,1.75
2023-03-15T08:50:09.616Z,1.35
2023-03-15T08:52:36.564Z,1.20
2023-03-15T08:55:05.000Z,2.05
2023-03-15T08:57:32.980Z,1.35
2023-03-15T09:00:01.863Z,1.17
2023-03-15T09:02:29.469Z,1.35
2023-03-15T09:04:56.425Z,1.90
2023-03-15T09:07:23.329Z,1.42
2023-03-15T09:09:50.414Z,1.20
2023-03-15T09:12:17.705Z,1.00
2023-03-15T09:14:44.753Z,1.25
2023-03-15T09:17:12.134Z,1.10
2023-03-15T09:19:39.901Z,0.88
2023-03-15T09:22:16.848Z,0.90
2023-03-15T09:24:52.708Z,1.23
2023-03-15T09:27:19.713Z,1.00
2023-03-15T09:29:46.660Z,1.25
2023-03-15T09:32:13.664Z,1.30
2023-03-15T09:34:42.220Z,1.35
2023-03-15T09:37:09.989Z,1.23
2023-03-15T09:39:36.924Z,1.77
2023-03-15T09:42:12.284Z,1.17
2023-03-15T09:44:52.583Z,1.52
2023-03-15T09:47:46.499Z,1.67
2023-03-15T09:50:27.570Z,1.63
2023-03-15T09:53:12.538Z,1.30
2023-03-15T09:55:40.547Z,1.10
2023-03-15T09:58:15.422Z,1.40
2023-03-15T10:00:49.304Z,1.02
2023-03-15T10:03:32.300Z,1.00
2023-03-15T10:06:05.201Z,1.10
2023-03-15T10:08:32.164Z,1.30
2023-03-15T10:11:09.201Z,0.90
2023-03-15T10:13:55.350Z,1.02
2023-03-15T10:16:38.309Z,0.90
2023-03-15T10:19:15.031Z,1.73
2023-03-15T10:22:15.874Z,1.42
2023-03-15T10:25:05.167Z,1.10
2023-03-15T10:27:48.865Z,0.80
2023-03-15T10:30:33.788Z,1.17
2023-03-15T10:33:28.183Z,1.25
2023-03-15T10:36:01.296Z,1.00
2023-03-15T10:38:34.653Z,1.10
2023-03-15T10:41:01.604Z,1.10
2023-03-15T10:43:37.109Z,1.33
2023-03-15T10:46:07.035Z,1.30
2023-03-15T10:48:37.004Z,1.38
2023-03-15T10:51:25.659Z,1.30
2023-03-15T10:54:06.284Z,1.35
2023-03-15T10:56:55.854Z,0.90
2023-03-15T10:59:25.197Z,1.10
2023-03-15T11:01:54.566Z,1.17
2023-03-15T11:04:27.440Z,1.00
2023-03-15T11:06:57.068Z,1.00
2023-03-15T11:09:26.540Z,1.25
2023-03-15T11:12:05.922Z,0.90
2023-03-15T11:14:44.981Z,1.00
2023-03-15T11:17:24.534Z,1.05
2023-03-15T11:19:58.020Z,1.38
2023-03-15T11:22:25.123Z,1.15
2023-03-15T11:24:54.743Z,1.30
2023-03-15T11:27:24.238Z,1.30
2023-03-15T11:29:58.529Z,1.50
2023-03-15T11:32:29.015Z,1.40
2023-03-15T11:35:08.317Z,1.02
2023-03-15T11:37:48.978Z,0.93
2023-03-15T11:40:22.265Z,1.58
2023-03-15T11:43:01.630Z,1.13
2023-03-15T11:45:42.089Z,1.20
2023-03-15T11:48:19.856Z,1.38
2023-03-15T11:50:46.809Z,1.15
2023-03-15T11:53:18.167Z,1.40
2023-03-15T11:55:50.968Z,1.35
2023-03-15T11:58:35.765Z,1.30
2023-03-15T12:01:04.805Z,0.95
2023-03-15T12:03:42.360Z,1.20
2023-03-15T12:06:18.630Z,1.23
2023-03-15T12:08:53.242Z,1.00
2023-03-15T12:11:20.516Z,1.17
2023-03-15T12:13:59.386Z,1.00
2023-03-15T12:16:29.226Z,0.77
2023-03-15T12:19:09.850Z,1.00
2023-03-15T12:21:44.201Z,0.70
2023-03-15T12:24:38.130Z,0.60
2023-03-15T12:27:23.229Z,0.80
2023-03-15T12:29:59.753Z,0.95
2023-03-15T12:32:30.431Z,0.80
2023-03-15T12:35:08.949Z,1.00
2023-03-15T12:37:38.753Z,0.70
2023-03-15T12:40:22.409Z,0.80
2023-03-15T12:42:49.380Z,0.98
2023-03-15T12:45:16.362Z,0.80
2023-03-15T12:48:08.757Z,1.17
2023-03-15T12:50:38.676Z,1.00
2023-03-15T12:53:19.416Z,1.00
2023-03-15T12:55:47.540Z,1.05
2023-03-15T12:58:17.635Z,0.85
2023-03-15T13:00:45.447Z,0.90
2023-03-15T13:03:18.647Z,0.80
2023-03-15T13:06:27.218Z,1.13
2023-03-15T13:09:09.377Z,1.08
2023-03-15T13:12:08.737Z,1.05
2023-03-15T13:14:52.751Z,1.00
2023-03-15T13:17:44.880Z,1.00
2023-03-15T13:20:56.668Z,0.93
2023-03-15T13:23:29.509Z,0.90
2023-03-15T13:26:33.271Z,0.80
2023-03-15T13:29:02.086Z,0.93
2023-03-15T13:31:31.563Z,0.73
2023-03-15T13:34:12.598Z,0.90
2023-03-15T13:36:49.409Z,0.88
2023-03-15T13:39:24.310Z,0.80
2023-03-15T13:41:58.319Z,0.85
2023-03-15T13:44:26.420Z,1.08
2023-03-15T13:46:54.186Z,0.70
2023-03-15T13:49:21.688Z,0.57
2023-03-15T13:51:50.727Z,0.40
2023-03-15T13:54:35.762Z,0.57
2023-03-15T13:57:29.238Z,0.90
2023-03-15T14:00:23.383Z,0.80
2023-03-15T14:03:01.842Z,1.50
2023-03-15T14:05:32.462Z,1.10
2023-03-15T14:08:15.337Z,0.90
2023-03-15T14:10:42.267Z,0.70
2023-03-15T14:13:29.572Z,0.70
2023-03-15T14:16:02.479Z,0.75
2023-03-15T14:18:40.792Z,0.80
2023-03-15T14:21:11.453Z,0.70
2023-03-15T14:23:48.069Z,0.75
2023-03-15T14:26:27.481Z,1.10
2023-03-15T14:29:05.287Z,0.70
2023-03-15T14:31:40.694Z,0.75
2023-03-15T14:34:16.368Z,0.70
2023-03-15T14:36:45.886Z,0.77
2023-03-15T14:39:30.142Z,0.80
2023-03-15T14:41:57.176Z,0.57
2023-03-15T14:44:24.112Z,0.70
2023-03-15T14:46:51.190Z,0.80
2023-03-15T14:49:28.441Z,0.73
2023-03-15T14:52:06.461Z,0.60
2023-03-15T14:54:34.060Z,0.75
2023-03-15T14:57:00.997Z,1.00
2023-03-15T14:59:27.970Z,0.75
2023-03-15T15:01:58.444Z,1.05
2023-03-15T15:04:32.277Z,0.57
2023-03-15T15:06:59.573Z,0.80
2023-03-15T15:09:28.210Z,0.90
2023-03-15T15:11:55.297Z,0.77
2023-03-15T15:14:22.746Z,0.77
2023-03-15T15:16:50.426Z,0.70
2023-03-15T15:19:17.357Z,0.63
2023-03-15T15:21:44.647Z,0.57
2023-03-15T15:24:20.280Z,0.75
2023-03-15T15:26:47.621Z,0.77
2023-03-15T15:29:16.379Z,0.80
2023-03-15T15:31:44.873Z,0.60
2023-03-15T15:34:12.840Z,0.68
2023-03-15T15:36:43.468Z,0.70
2023-03-15T15:39:23.195Z,0.60
2023-03-15T15:41:50.630Z,0.60
2023-03-15T15:44:20.252Z,0.57
2023-03-15T15:46:47.429Z,0.73
2023-03-15T15:49:14.440Z,0.63
2023-03-15T15:51:49.055Z,0.73
2023-03-15T15:54:22.925Z,0.70
2023-03-15T15:56:56.785Z,0.68
2023-03-15T15:59:27.206Z,0.80
2023-03-15T16:02:03.117Z,0.60
2023-03-15T16:04:30.809Z,0.70
2023-03-15T16:07:01.854Z,0.90
2023-03-15T16:09:31.136Z,0.80
2023-03-15T16:11:58.609Z,1.00
2023-03-15T16:14:25.616Z,0.88
2023-03-15T16:16:52.648Z,0.80
2023-03-15T16:19:19.632Z,0.63
2023-03-15T16:21:49.843Z,0.88
2023-03-15T16:24:30.595Z,1.08
2023-03-15T16:27:06.075Z,1.00
2023-03-15T16:29:59.108Z,1.15
2023-03-15T16:32:43.076Z,1.38
2023-03-15T16:35:16.254Z,2.05
2023-03-15T16:37:44.788Z,1.52
2023-03-15T16:40:27.857Z,1.60
2023-03-15T16:42:55.387Z,1.55
2023-03-15T16:45:23.505Z,1.70
2023-03-15T16:47:50.608Z,1.33
2023-03-15T16:50:18.412Z,2.10
2023-03-15T16:52:48.203Z,2.50
2023-03-15T16:55:18.236Z,2.28
2023-03-15T16:57:45.396Z,1.70
2023-03-15T17:00:17.406Z,1.77
2023-03-15T17:02:49.250Z,1.90
2023-03-15T17:05:20.943Z,1.55
2023-03-15T17:07:50.076Z,1.40
2023-03-15T17:10:27.554Z,1.10
2023-03-15T17:12:55.975Z,1.48
2023-03-15T17:15:26.189Z,1.48
2023-03-15T17:17:57.253Z,1.45
2023-03-15T17:20:27.378Z,1.63
2023-03-15T17:23:04.014Z,1.83
2023-03-15T17:25:32.409Z,2.42
2023-03-15T17:28:00.346Z,2.78
2023-03-15T17:30:31.802Z,2.60
2023-03-15T17:32:59.429Z,3.35
2023-03-15T17:35:33.813Z,2.40
2023-03-15T17:38:03.006Z,2.55
2023-03-15T17:40:32.306Z,2.70
2023-03-15T17:43:01.648Z,3.70
2023-03-15T17:45:31.496Z,3.50
2023-03-15T17:47:58.866Z,2.53
2023-03-15T17:50:28.738Z,1.80
2023-03-15T17:52:58.118Z,1.80
2023-03-15T17:55:26.891Z,1.58
2023-03-15T17:57:55.477Z,1.42
2023-03-15T18:00:24.186Z,1.58
2023-03-15T18:02:56.583Z,1.13
2023-03-15T18:05:28.622Z,1.45
2023-03-15T18:07:59.019Z,1.42
2023-03-15T18:10:33.526Z,1.42
2023-03-15T18:13:00.566Z,2.50
2023-03-15T18:15:27.534Z,2.60
2023-03-15T18:17:54.549Z,2.67
2023-03-15T18:20:23.932Z,2.38
2023-03-15T18:22:51.209Z,2.08
2023-03-15T18:25:21.936Z,1.90
2023-03-15T18:27:49.783Z,1.70
2023-03-15T18:30:20.328Z,1.75
2023-03-15T18:32:47.584Z,1.50
2023-03-15T18:35:20.486Z,1.60
2023-03-15T18:37:47.887Z,1.42
2023-03-15T18:40:17.265Z,1.83
2023-03-15T18:42:44.980Z,1.52
2023-03-15T18:45:18.689Z,2.03
2023-03-15T18:47:46.538Z,2.00
2023-03-15T18:50:14.193Z,1.75
2023-03-15T18:52:43.296Z,1.88
2023-03-15T18:55:13.229Z,1.85
2023-03-15T18:57:43.212Z,2.33
2023-03-15T19:00:23.902Z,2.30
2023-03-15T19:02:51.071Z,2.55
2023-03-15T19:05:18.304Z,1.67
2023-03-15T19:07:47.629Z,1.75
2023-03-15T19:10:16.565Z,1.73
2023-03-15T19:12:46.627Z,1.55
2023-03-15T19:15:17.390Z,1.40
2023-03-15T19:17:46.780Z,1.50
2023-03-15T19:20:15.910Z,1.60
2023-03-15T19:22:44.968Z,1.60
2023-03-15T19:25:13.995Z,1.88
2023-03-15T19:27:44.458Z,2.20
2023-03-15T19:30:16.999Z,1.67
2023-03-15T19:32:46.982Z,1.67
2023-03-15T19:35:14.377Z,1.77
2023-03-15T19:37:44.578Z,1.80
2023-03-15T19:40:13.453Z,2.00
2023-03-15T19:42:40.522Z,1.48
2023-03-15T19:45:08.906Z,1.60
2023-03-15T19:47:35.930Z,1.55
2023-03-15T19:50:03.253Z,1.20
2023-03-15T19:52:30.323Z,1.73
2023-03-15T19:54:57.268Z,1.42
2023-03-15T19:57:24.234Z,1.65
2023-03-15T19:59:51.224Z,1.55
2023-03-15T20:02:18.222Z,1.30
2023-03-15T20:04:45.766Z,2.22
2023-03-15T20:07:13.050Z,1.58
2023-03-15T20:09:41.460Z,1.50
2023-03-15T20:12:12.902Z,1.48
2023-03-15T20:14:39.870Z,1.40
2023-03-15T20:17:07.340Z,2.05
2023-03-15T20:19:36.034Z,1.40
2023-03-15T20:22:03.129Z,1.48
2023-03-15T20:24:30.263Z,1.35
2023-03-15T20:26:57.217Z,1.60
2023-03-15T20:29:24.180Z,1.98
2023-03-15T20:31:53.308Z,1.30
2023-03-15T20:34:20.671Z,1.67
2023-03-15T20:36:47.880Z,1.38
2023-03-15T20:39:15.341Z,1.45
2023-03-15T20:41:42.250Z,1.35
2023-03-15T20:44:09.814Z,1.30
2023-03-15T20:46:37.275Z,1.23
2023-03-15T20:49:04.287Z,1.13
2023-03-15T20:51:31.201Z,1.38
2023-03-15T20:53:58.445Z,1.30
2023-03-15T20:56:25.561Z,2.00
2023-03-15T20:58:52.478Z,1.95
2023-03-15T21:01:20.814Z,2.30
2023-03-15T21:03:48.574Z,1.33
2023-03-15T21:06:15.700Z,1.45
2023-03-15T21:08:42.782Z,1.35
2023-03-15T21:11:10.048Z,1.70
2023-03-15T21:13:37.338Z,1.50
2023-03-15T21:16:04.830Z,1.70
2023-03-15T21:18:33.008Z,1.60
2023-03-15T21:21:02.984Z,1.33
2023-03-15T21:23:33.421Z,1.40
2023-03-15T21:26:09.521Z,1.80
2023-03-15T21:28:37.543Z,2.00
2023-03-15T21:31:05.663Z,1.63
2023-03-15T21:33:33.117Z,1.90
2023-03-15T21:36:01.145Z,2.20
2023-03-15T21:38:31.302Z,2.28
2023-03-15T21:40:59.798Z,1.90
2023-03-15T21:43:29.107Z,2.30
2023-03-15T21:45:59.769Z,2.20
2023-03-15T21:48:27.058Z,1.95
2023-03-15T21:50:54.311Z,1.70
2023-03-15T21:53:22.944Z,1.58
2023-03-15T21:55:50.121Z,2.47
2023-03-15T21:58:17.202Z,1.63
2023-03-15T22:00:44.298Z,2.08
2023-03-15T22:03:14.127Z,1.58
2023-03-15T22:05:41.985Z,1.80
2023-03-15T22:08:08.899Z,1.77
2023-03-15T22:10:36.049Z,1.77
2023-03-15T22:13:03.451Z,1.88
2023-03-15T22:15:30.368Z,1.95
2023-03-15T22:17:57.344Z,2.15
2023-03-15T22:20:25.528Z,2.13
2023-03-15T22:22:52.758Z,1.90
2023-03-15T22:25:19.837Z,1.88
2023-03-15T22:27:46.964Z,2.08
2023-03-15T22:30:14.895Z,2.03
2023-03-15T22:32:44.217Z,2.00
2023-03-15T22:35:13.663Z,1.95
2023-03-15T22:37:40.855Z,2.17
2023-03-15T22:40:09.949Z,2.03
2023-03-15T22:42:37.166Z,2.30
2023-03-15T22:45:04.408Z,1.83
2023-03-15T22:47:31.396Z,2.00
2023-03-15T22:49:59.776Z,1.98
2023-03-15T22:52:29.811Z,1.90
2023-03-15T22:54:56.743Z,2.15
2023-03-15T22:57:23.944Z,2.08
2023-03-15T22:59:51.072Z,2.00
2023-03-15T23:02:18.101Z,2.70
2023-03-15T23:04:46.109Z,2.42
2023-03-15T23:07:13.788Z,2.80
2023-03-15T23:09:40.850Z,3.30
2023-03-15T23:12:08.320Z,3.10
2023-03-15T23:14:35.852Z,2.90
2023-03-15T23:17:05.903Z,3.30
2023-03-15T23:19:36.164Z,2.92
2023-03-15T23:22:04.633Z,3.00
2023-03-15T23:24:35.152Z,3.40
2023-03-15T23:27:05.767Z,3.20
2023-03-15T23:29:47.145Z,3.08
2023-03-15T23:32:20.755Z,2.95
2023-03-15T23:34:48.133Z,2.42
2023-03-15T23:37:15.565Z,2.33
2023-03-15T23:39:43.003Z,2.40
2023-03-15T23:42:10.421Z,2.30
2023-03-15T23:44:38.296Z,1.90
2023-03-15T23:47:08.791Z,2.28
2023-03-15T23:49:35.920Z,2.10
2023-03-15T23:52:05.981Z,2.22
2023-03-15T23:54:40.277Z,2.00
2023-03-15T23:57:09.077Z,2.40
2023-03-15T23:59:37.333Z,2.15
